Terminal Aerodrome Forecast
Issued by NWS Albany, NY

Home | Current Version | Previous Version | Text Only | Print | Product List | Glossary On
Versions: 1 2 3 4 5 6 7 8 9 10 11 12 13
000
FTUS41 KALY 231120
TAFGFL
TAF
KGFL 231120Z 2312/2412 20005KT P6SM SCT100
     FM231500 27008KT P6SM SCT050 SCT250
     FM231800 30010G18KT P6SM VCSH BKN050 BKN250
     FM232300 32007KT P6SM FEW050 SCT250
     FM240300 34004KT P6SM SKC
     FM240600 VRB03KT 3SM BR SKC=

USA.gov is the U.S. government's official web portal to all federal, state and local government web resources and services.